createdAt,value
2022-11-09T00:00:42.025Z,29.33
2022-11-09T00:03:08.912Z,26.85
2022-11-09T00:05:35.663Z,28.13
2022-11-09T00:08:05.540Z,27.40
2022-11-09T00:10:32.829Z,28.42
2022-11-09T00:12:59.617Z,28.58
2022-11-09T00:15:26.274Z,28.83
2022-11-09T00:17:52.877Z,31.40
2022-11-09T00:20:19.622Z,29.50
2022-11-09T00:22:50.232Z,28.70
2022-11-09T00:25:16.829Z,27.55
2022-11-09T00:27:43.421Z,31.00
2022-11-09T00:30:10.642Z,31.42
2022-11-09T00:32:37.276Z,29.08
2022-11-09T00:35:04.201Z,30.10
2022-11-09T00:37:31.006Z,27.85
2022-11-09T00:39:57.589Z,30.30
2022-11-09T00:42:24.279Z,29.35
2022-11-09T00:44:50.842Z,27.83
2022-11-09T00:47:17.414Z,28.80
2022-11-09T00:49:43.963Z,28.58
2022-11-09T00:52:10.521Z,27.90
2022-11-09T00:54:37.090Z,28.95
2022-11-09T00:57:03.810Z,27.75
2022-11-09T00:59:30.370Z,28.50
2022-11-09T01:01:56.993Z,29.20
2022-11-09T01:04:23.603Z,31.38
2022-11-09T01:06:50.207Z,28.77
2022-11-09T01:09:16.826Z,29.02
2022-11-09T01:11:43.365Z,28.48
2022-11-09T01:14:10.801Z,25.92
2022-11-09T01:16:37.537Z,25.42
2022-11-09T01:19:04.157Z,26.67
2022-11-09T01:21:30.773Z,26.42
2022-11-09T01:23:58.537Z,23.52
2022-11-09T01:26:25.726Z,24.58
2022-11-09T01:28:52.261Z,25.20
2022-11-09T01:31:21.171Z,26.80
2022-11-09T01:33:48.444Z,27.80
2022-11-09T01:36:18.357Z,29.83
2022-11-09T01:38:45.350Z,29.85
2022-11-09T01:41:23.468Z,30.27
2022-11-09T01:44:07.344Z,29.20
2022-11-09T01:46:41.353Z,29.95
2022-11-09T01:49:24.485Z,31.30
2022-11-09T01:51:56.706Z,29.05
2022-11-09T01:54:29.020Z,26.38
2022-11-09T01:57:01.166Z,27.00
2022-11-09T01:59:36.533Z,26.38
2022-11-09T02:02:04.775Z,26.48
2022-11-09T02:04:36.727Z,26.85
2022-11-09T02:07:04.642Z,27.33
2022-11-09T02:09:31.205Z,26.83
2022-11-09T02:11:58.138Z,26.05
2022-11-09T02:14:26.696Z,26.23
2022-11-09T02:16:53.415Z,26.38
2022-11-09T02:19:19.962Z,24.92
2022-11-09T02:21:46.624Z,25.63
2022-11-09T02:24:13.183Z,26.27
2022-11-09T02:26:50.962Z,26.13
2022-11-09T02:29:22.595Z,25.30
2022-11-09T02:31:57.296Z,29.35
2022-11-09T02:34:24.855Z,29.13
2022-11-09T02:36:51.540Z,30.20
2022-11-09T02:39:20.860Z,30.20
2022-11-09T02:41:54.408Z,30.05
2022-11-09T02:44:21.096Z,28.98
2022-11-09T02:46:47.858Z,30.77
2022-11-09T02:49:14.597Z,30.88
2022-11-09T02:51:41.544Z,29.77
2022-11-09T02:54:08.190Z,28.75
2022-11-09T02:56:34.792Z,29.58
2022-11-09T02:59:03.323Z,28.90
2022-11-09T03:01:31.041Z,29.13
2022-11-09T03:03:57.609Z,28.45
2022-11-09T03:06:34.460Z,26.83
2022-11-09T03:09:04.061Z,27.23
2022-11-09T03:11:30.630Z,26.90
2022-11-09T03:13:57.636Z,28.05
2022-11-09T03:16:24.584Z,29.38
2022-11-09T03:18:52.118Z,29.67
2022-11-09T03:21:19.318Z,29.23
2022-11-09T03:23:46.244Z,28.08
2022-11-09T03:26:12.835Z,29.60
2022-11-09T03:28:39.717Z,26.67
2022-11-09T03:31:06.337Z,25.60
2022-11-09T03:33:33.150Z,25.48
2022-11-09T03:36:00.074Z,25.60
2022-11-09T03:38:26.774Z,25.55
2022-11-09T03:40:53.332Z,25.65
2022-11-09T03:43:20.218Z,26.80
2022-11-09T03:45:47.797Z,25.38
2022-11-09T03:48:14.356Z,26.37
2022-11-09T03:50:40.977Z,26.75
2022-11-09T03:53:09.626Z,26.63
2022-11-09T03:55:36.708Z,27.08
2022-11-09T03:58:04.700Z,26.55
2022-11-09T04:00:32.175Z,27.38
2022-11-09T04:02:59.036Z,29.98
2022-11-09T04:05:26.174Z,39.65
2022-11-09T04:07:55.022Z,39.00
2022-11-09T04:10:22.785Z,35.80
2022-11-09T04:12:49.525Z,28.95
2022-11-09T04:15:16.130Z,27.48
2022-11-09T04:17:44.747Z,27.33
2022-11-09T04:20:11.880Z,29.15
2022-11-09T04:22:38.722Z,28.00
2022-11-09T04:25:06.008Z,30.13
2022-11-09T04:27:32.529Z,31.98
2022-11-09T04:29:59.112Z,36.83
2022-11-09T04:32:25.716Z,38.17
2022-11-09T04:34:52.244Z,37.33
2022-11-09T04:37:18.888Z,35.85
2022-11-09T04:39:45.421Z,29.85
2022-11-09T04:42:11.959Z,30.13
2022-11-09T04:44:38.827Z,30.52
2022-11-09T04:47:05.458Z,31.55
2022-11-09T04:49:31.997Z,31.35
2022-11-09T04:51:58.556Z,29.48
2022-11-09T04:54:25.118Z,25.98
2022-11-09T04:56:51.710Z,26.02
2022-11-09T04:59:18.343Z,28.88
2022-11-09T05:01:44.885Z,53.25
2022-11-09T05:04:11.570Z,49.70
2022-11-09T05:06:38.254Z,43.88
2022-11-09T05:09:06.950Z,34.15
2022-11-09T05:11:35.538Z,33.92
2022-11-09T05:14:02.673Z,34.83
2022-11-09T05:16:29.839Z,38.30
2022-11-09T05:18:56.405Z,37.95
2022-11-09T05:21:23.588Z,40.78
2022-11-09T05:23:59.611Z,39.15
2022-11-09T05:26:34.503Z,41.55
2022-11-09T05:29:03.485Z,42.63
2022-11-09T05:31:30.453Z,46.38
2022-11-09T05:33:57.529Z,44.65
2022-11-09T05:36:24.127Z,45.10
2022-11-09T05:38:50.736Z,50.28
2022-11-09T05:41:17.787Z,42.22
2022-11-09T05:43:45.500Z,36.50
2022-11-09T05:46:15.677Z,32.22
2022-11-09T05:48:43.333Z,32.70
2022-11-09T05:51:11.892Z,34.58
2022-11-09T05:53:45.889Z,38.25
2022-11-09T05:58:41.395Z,37.72
2022-11-09T06:01:13.408Z,32.22
2022-11-09T06:03:42.090Z,33.50
2022-11-09T06:06:09.977Z,32.65
2022-11-09T06:08:37.819Z,31.52
2022-11-09T06:11:06.766Z,31.85
2022-11-09T06:13:33.723Z,32.97
2022-11-09T06:16:02.169Z,32.60
2022-11-09T06:18:30.777Z,33.58
2022-11-09T06:20:59.698Z,33.97
2022-11-09T06:23:27.025Z,32.97
2022-11-09T06:25:57.873Z,33.15
2022-11-09T06:28:24.553Z,33.15
2022-11-09T06:30:51.336Z,39.17
2022-11-09T06:33:18.154Z,38.45
2022-11-09T06:35:44.973Z,36.08
2022-11-09T06:38:11.709Z,33.17
2022-11-09T06:40:39.273Z,34.90
2022-11-09T06:43:06.014Z,34.72
2022-11-09T06:45:33.393Z,34.45
2022-11-09T06:48:02.414Z,36.25
2022-11-09T06:50:31.329Z,35.22
2022-11-09T06:53:02.711Z,36.35
2022-11-09T06:55:30.661Z,34.75
2022-11-09T06:57:58.426Z,32.33
2022-11-09T07:00:26.229Z,32.97
2022-11-09T07:02:52.964Z,32.08
2022-11-09T07:05:20.096Z,31.13
2022-11-09T07:07:46.714Z,30.02
2022-11-09T07:10:13.473Z,30.40
2022-11-09T07:12:40.065Z,32.05
2022-11-09T07:15:07.198Z,32.13
2022-11-09T07:17:34.825Z,29.80
2022-11-09T07:20:01.429Z,28.40
2022-11-09T07:22:28.431Z,31.52
2022-11-09T07:24:55.867Z,31.25
2022-11-09T07:27:27.468Z,31.73
2022-11-09T07:29:54.330Z,32.63
2022-11-09T07:32:24.601Z,32.58
2022-11-09T07:35:04.346Z,32.80
2022-11-09T07:37:31.545Z,31.13
2022-11-09T07:39:58.479Z,30.50
2022-11-09T07:42:25.308Z,28.75
2022-11-09T07:44:51.927Z,28.92
2022-11-09T07:47:19.682Z,28.08
2022-11-09T07:49:46.894Z,28.00
2022-11-09T07:52:13.965Z,29.05
2022-11-09T07:54:40.890Z,28.65
2022-11-09T07:57:07.639Z,32.42
2022-11-09T07:59:34.372Z,33.00
2022-11-09T08:02:01.101Z,32.53
2022-11-09T08:04:27.840Z,33.83
2022-11-09T08:06:54.741Z,31.15
2022-11-09T08:09:21.380Z,30.73
2022-11-09T08:11:47.945Z,32.30
2022-11-09T08:14:14.553Z,31.95
2022-11-09T08:16:41.103Z,28.67
2022-11-09T08:19:09.635Z,29.33
2022-11-09T08:21:37.181Z,31.25
2022-11-09T08:24:05.619Z,29.98
2022-11-09T08:26:32.598Z,25.73
2022-11-09T08:28:59.201Z,24.23
2022-11-09T08:31:25.801Z,26.00
2022-11-09T08:33:52.463Z,22.42
2022-11-09T08:36:19.305Z,24.30
2022-11-09T08:38:46.351Z,26.38
2022-11-09T08:41:14.137Z,24.45
2022-11-09T08:43:41.339Z,26.48
2022-11-09T08:46:08.071Z,24.50
2022-11-09T08:48:34.707Z,24.33
2022-11-09T08:51:01.327Z,24.55
2022-11-09T08:53:29.287Z,23.15
2022-11-09T08:55:56.413Z,21.90
2022-11-09T08:58:23.595Z,20.20
2022-11-09T09:00:50.584Z,19.23
2022-11-09T09:03:17.879Z,22.63
2022-11-09T09:05:44.447Z,22.20
2022-11-09T09:08:12.889Z,24.27
2022-11-09T09:10:40.471Z,22.42
2022-11-09T09:13:07.234Z,21.42
2022-11-09T09:15:34.462Z,20.40
2022-11-09T09:18:02.317Z,19.92
2022-11-09T09:20:29.018Z,25.83
2022-11-09T09:22:59.211Z,21.05
2022-11-09T09:25:27.100Z,20.55
2022-11-09T09:27:53.735Z,20.65
2022-11-09T09:30:20.285Z,20.42
2022-11-09T09:32:46.887Z,20.00
2022-11-09T09:35:13.466Z,20.25
2022-11-09T09:37:40.081Z,22.00
2022-11-09T09:40:07.157Z,20.15
2022-11-09T09:42:43.010Z,20.88
2022-11-09T09:45:20.335Z,20.83
2022-11-09T09:48:12.834Z,21.13
2022-11-09T09:51:00.708Z,21.27
2022-11-09T09:53:34.118Z,20.88
2022-11-09T09:56:06.292Z,18.33
2022-11-09T09:58:35.071Z,20.02
2022-11-09T10:01:12.134Z,20.98
2022-11-09T10:03:38.752Z,18.73
2022-11-09T10:06:33.151Z,19.38
2022-11-09T10:09:14.725Z,19.70
2022-11-09T10:11:51.977Z,20.13
2022-11-09T10:14:28.547Z,21.27
2022-11-09T10:17:03.210Z,19.30
2022-11-09T10:19:53.309Z,20.48
2022-11-09T10:22:35.359Z,20.08
2022-11-09T10:25:23.790Z,19.67
2022-11-09T10:27:58.009Z,20.52
2022-11-09T10:30:27.159Z,29.95
2022-11-09T10:33:02.832Z,19.58
2022-11-09T10:35:35.238Z,19.27
2022-11-09T10:38:01.811Z,21.70
2022-11-09T10:40:41.927Z,19.73
2022-11-09T10:43:13.982Z,18.25
2022-11-09T10:45:43.253Z,21.30
2022-11-09T10:48:12.600Z,18.98
2022-11-09T10:50:52.701Z,17.75
2022-11-09T10:53:24.891Z,18.88
2022-11-09T10:55:55.574Z,18.80
2022-11-09T10:58:52.629Z,19.23
2022-11-09T11:01:20.460Z,21.48
2022-11-09T11:03:51.378Z,20.05
2022-11-09T11:06:20.707Z,21.27
2022-11-09T11:08:48.972Z,24.40
2022-11-09T11:11:35.410Z,21.23
2022-11-09T11:14:19.902Z,21.80
2022-11-09T11:19:34.958Z,21.92
2022-11-09T11:22:19.693Z,20.15
2022-11-09T11:24:50.862Z,18.33
2022-11-09T11:27:27.367Z,18.60
2022-11-09T11:30:10.703Z,20.27
2022-11-09T11:32:37.388Z,19.67
2022-11-09T11:35:11.546Z,21.40
2022-11-09T11:37:47.178Z,20.38
2022-11-09T11:40:13.675Z,19.80
2022-11-09T11:42:45.987Z,17.10
2022-11-09T11:45:40.104Z,20.63
2022-11-09T11:48:26.131Z,19.52
2022-11-09T11:51:24.950Z,19.50
2022-11-09T11:54:14.068Z,18.55
2022-11-09T11:56:52.725Z,21.48
2022-11-09T11:59:38.324Z,19.17
2022-11-09T12:02:37.151Z,18.17
2022-11-09T12:05:09.681Z,18.10
2022-11-09T12:08:08.697Z,19.77
2022-11-09T12:10:56.615Z,19.60
2022-11-09T12:13:39.868Z,18.52
2022-11-09T12:16:28.109Z,17.50
2022-11-09T12:19:35.065Z,17.65
2022-11-09T12:22:30.294Z,17.65
2022-11-09T12:25:23.537Z,20.63
2022-11-09T12:28:15.065Z,19.33
2022-11-09T12:30:56.377Z,19.70
2022-11-09T12:33:35.432Z,18.17
2022-11-09T12:36:13.841Z,16.73
2022-11-09T12:39:31.389Z,18.65
2022-11-09T12:42:04.380Z,17.50
2022-11-09T12:44:43.278Z,18.88
2022-11-09T12:47:20.753Z,17.85
2022-11-09T12:49:47.594Z,20.05
2022-11-09T12:52:19.450Z,20.67
2022-11-09T12:54:49.600Z,20.33
2022-11-09T12:57:25.820Z,19.83
2022-11-09T12:59:57.603Z,19.05
2022-11-09T13:02:39.126Z,19.85
2022-11-09T13:05:26.300Z,19.80
2022-11-09T13:07:54.623Z,19.70
2022-11-09T13:10:28.315Z,20.30
2022-11-09T13:13:19.969Z,19.73
2022-11-09T13:16:33.206Z,19.65
2022-11-09T13:19:02.958Z,21.42
2022-11-09T13:21:29.498Z,20.55
2022-11-09T13:24:05.308Z,21.52
2022-11-09T13:26:33.678Z,21.25
2022-11-09T13:29:15.502Z,20.70
2022-11-09T13:32:10.935Z,22.13
2022-11-09T13:34:43.517Z,22.50
2022-11-09T13:37:40.794Z,20.40
2022-11-09T13:40:32.667Z,21.35
2022-11-09T13:43:15.421Z,21.85
2022-11-09T13:45:53.041Z,23.60
2022-11-09T13:48:35.921Z,27.25
2022-11-09T13:51:05.984Z,40.85
2022-11-09T13:53:38.543Z,25.42
2022-11-09T13:56:27.602Z,21.00
2022-11-09T13:59:15.793Z,19.13
2022-11-09T14:01:50.265Z,18.83
2022-11-09T14:04:27.451Z,17.02
2022-11-09T14:07:07.506Z,16.85
2022-11-09T14:09:57.247Z,17.80
2022-11-09T14:12:42.365Z,17.08
2022-11-09T14:15:47.690Z,17.70
2022-11-09T14:18:49.892Z,17.40
2022-11-09T14:21:35.266Z,18.50
2022-11-09T14:24:17.525Z,17.85
2022-11-09T14:27:09.188Z,17.27
2022-11-09T14:29:54.369Z,15.60
2022-11-09T14:32:35.651Z,15.88
2022-11-09T14:35:14.570Z,28.98
2022-11-09T14:37:45.130Z,34.50
2022-11-09T14:40:28.634Z,18.08
2022-11-09T14:42:57.311Z,19.25
2022-11-09T14:45:24.533Z,20.23
2022-11-09T14:47:54.631Z,19.15
2022-11-09T14:50:27.413Z,24.02
2022-11-09T14:52:55.611Z,22.90
2022-11-09T14:55:24.330Z,22.63
2022-11-09T14:57:54.049Z,19.70
2022-11-09T15:00:32.992Z,20.60
2022-11-09T15:03:20.380Z,20.10
2022-11-09T15:05:47.137Z,21.45
2022-11-09T15:08:22.585Z,21.40
2022-11-09T15:10:52.293Z,20.02
2022-11-09T15:13:27.742Z,17.63
2022-11-09T15:15:55.097Z,17.05
2022-11-09T15:18:33.530Z,20.45
2022-11-09T15:21:30.213Z,21.33
2022-11-09T15:24:10.215Z,39.42
2022-11-09T15:26:44.407Z,40.13
2022-11-09T15:29:36.390Z,37.42
2022-11-09T15:32:08.960Z,32.20
2022-11-09T15:34:39.342Z,29.30
2022-11-09T15:37:42.888Z,28.50
2022-11-09T15:40:13.098Z,28.03
2022-11-09T15:42:43.609Z,29.25
2022-11-09T15:45:18.491Z,28.73
2022-11-09T15:47:56.132Z,26.17
2022-11-09T15:50:26.273Z,29.55
2022-11-09T15:52:52.999Z,29.30
2022-11-09T15:55:23.000Z,25.10
2022-11-09T15:57:50.939Z,24.13
2022-11-09T16:00:21.210Z,26.05
2022-11-09T16:02:48.519Z,30.92
2022-11-09T16:05:15.801Z,39.25
2022-11-09T16:07:53.810Z,29.20
2022-11-09T16:10:23.239Z,27.65
2022-11-09T16:12:53.401Z,26.42
2022-11-09T16:15:20.384Z,26.15
2022-11-09T16:17:49.684Z,22.55
2022-11-09T16:20:17.730Z,25.63
2022-11-09T16:22:44.996Z,30.95
2022-11-09T16:25:12.517Z,39.58
2022-11-09T16:27:55.293Z,37.00
2022-11-09T16:30:22.336Z,35.50
2022-11-09T16:32:49.531Z,38.17
2022-11-09T16:35:26.667Z,35.55
2022-11-09T16:37:55.253Z,49.85
2022-11-09T16:40:22.850Z,44.70
2022-11-09T16:42:51.330Z,44.92
2022-11-09T16:45:17.993Z,50.90
2022-11-09T16:47:49.220Z,49.83
2022-11-09T16:50:16.273Z,51.08
2022-11-09T16:52:43.029Z,64.13
2022-11-09T16:55:10.267Z,65.22
2022-11-09T16:57:37.292Z,72.57
2022-11-09T17:00:06.051Z,74.07
2022-11-09T17:02:33.458Z,71.00
2022-11-09T17:05:00.042Z,96.60
2022-11-09T17:07:26.812Z,82.10
2022-11-09T17:09:53.437Z,52.53
2022-11-09T17:12:20.129Z,48.35
2022-11-09T17:14:46.691Z,65.22
2022-11-09T17:17:16.951Z,61.65
2022-11-09T17:19:46.818Z,51.25
2022-11-09T17:22:14.660Z,50.40
2022-11-09T17:24:41.295Z,49.67
2022-11-09T17:27:09.721Z,56.10
2022-11-09T17:29:40.183Z,60.13
2022-11-09T17:32:08.664Z,61.30
2022-11-09T17:34:35.403Z,59.33
2022-11-09T17:37:05.182Z,54.53
2022-11-09T17:39:33.103Z,51.58
2022-11-09T17:41:59.756Z,45.88
2022-11-09T17:44:26.633Z,43.20
2022-11-09T17:46:53.278Z,43.60
2022-11-09T17:49:19.870Z,42.50
2022-11-09T17:51:46.445Z,45.63
2022-11-09T17:54:14.979Z,45.95
2022-11-09T17:56:42.127Z,45.88
2022-11-09T17:59:09.120Z,43.30
2022-11-09T18:01:41.082Z,48.28
2022-11-09T18:04:11.265Z,53.33
2022-11-09T18:06:38.653Z,53.22
2022-11-09T18:11:52.726Z,48.55
2022-11-09T18:14:19.540Z,48.03
2022-11-09T18:16:46.131Z,50.42
2022-11-09T18:19:13.118Z,46.50
2022-11-09T18:21:39.694Z,43.80
2022-11-09T18:24:06.673Z,44.83
2022-11-09T18:26:33.356Z,43.72
2022-11-09T18:29:00.274Z,45.42
2022-11-09T18:31:26.874Z,43.40
2022-11-09T18:33:55.950Z,41.63
2022-11-09T18:36:23.440Z,37.72
2022-11-09T18:38:52.041Z,35.85
2022-11-09T18:41:21.939Z,33.42
2022-11-09T18:43:49.872Z,33.88
2022-11-09T18:46:18.626Z,30.92
2022-11-09T18:48:45.590Z,34.50
2022-11-09T18:51:12.468Z,39.15
2022-11-09T18:53:44.316Z,39.10
2022-11-09T18:56:19.128Z,43.13
2022-11-09T18:58:46.470Z,41.42
2022-11-09T19:01:13.348Z,39.63
2022-11-09T19:03:40.074Z,40.08
2022-11-09T19:06:09.089Z,37.97
2022-11-09T19:08:54.406Z,34.75
2022-11-09T19:11:21.003Z,31.63
2022-11-09T19:13:47.988Z,30.20
2022-11-09T19:16:15.599Z,30.30
2022-11-09T19:18:42.579Z,34.50
2022-11-09T19:21:40.188Z,33.72
2022-11-09T19:24:08.210Z,33.72
2022-11-09T19:26:35.300Z,32.25
2022-11-09T19:29:02.135Z,30.35
2022-11-09T19:31:29.096Z,36.60
2022-11-09T19:33:55.813Z,35.72
2022-11-09T19:36:30.735Z,35.70
2022-11-09T19:38:58.202Z,32.78
2022-11-09T19:41:25.490Z,33.28
2022-11-09T19:43:58.655Z,35.92
2022-11-09T19:46:33.178Z,33.75
2022-11-09T19:49:00.658Z,33.17
2022-11-09T19:51:29.441Z,35.22
2022-11-09T19:53:57.447Z,36.03
2022-11-09T19:56:26.075Z,33.70
2022-11-09T19:58:55.393Z,32.90
2022-11-09T20:01:22.876Z,33.70
2022-11-09T20:03:56.677Z,30.52
2022-11-09T20:06:24.341Z,30.60
2022-11-09T20:08:52.131Z,29.40
2022-11-09T20:11:39.436Z,30.35
2022-11-09T20:14:06.848Z,28.90
2022-11-09T20:16:35.346Z,27.77
2022-11-09T20:19:03.918Z,28.67
2022-11-09T20:21:30.538Z,32.38
2022-11-09T20:23:57.602Z,32.28
2022-11-09T20:26:24.220Z,32.08
2022-11-09T20:28:53.387Z,32.35
2022-11-09T20:31:21.466Z,28.63
2022-11-09T20:33:49.524Z,29.83
2022-11-09T20:36:18.628Z,29.92
2022-11-09T20:38:45.909Z,31.00
2022-11-09T20:41:13.233Z,29.10
2022-11-09T20:43:40.427Z,27.00
2022-11-09T20:46:16.115Z,27.38
2022-11-09T20:48:58.770Z,28.92
2022-11-09T20:51:26.085Z,26.70
2022-11-09T20:53:52.937Z,26.38
2022-11-09T20:56:20.586Z,26.02
2022-11-09T20:58:47.328Z,26.33
2022-11-09T21:01:20.818Z,26.58
2022-11-09T21:03:48.880Z,27.13
2022-11-09T21:06:15.523Z,25.73
2022-11-09T21:08:47.295Z,28.25
2022-11-09T21:11:13.884Z,27.90
2022-11-09T21:13:41.815Z,27.58
2022-11-09T21:16:13.912Z,28.25
2022-11-09T21:18:41.466Z,29.67
2022-11-09T21:21:13.501Z,27.67
2022-11-09T21:23:59.013Z,28.17
2022-11-09T21:26:44.834Z,26.30
2022-11-09T21:29:35.787Z,26.98
2022-11-09T21:32:03.319Z,27.42
2022-11-09T21:34:35.353Z,27.48
2022-11-09T21:37:03.085Z,24.27
2022-11-09T21:39:29.613Z,25.80
2022-11-09T21:41:56.182Z,28.98
2022-11-09T21:44:22.926Z,30.60
2022-11-09T21:46:49.464Z,30.35
2022-11-09T21:49:16.061Z,32.00
2022-11-09T21:51:42.684Z,32.38
2022-11-09T21:54:10.142Z,31.98
2022-11-09T21:56:36.908Z,32.85
2022-11-09T21:59:04.247Z,32.20
2022-11-09T22:01:30.980Z,33.35
2022-11-09T22:03:58.126Z,29.77
2022-11-09T22:06:25.750Z,29.98
2022-11-09T22:08:52.854Z,29.90
2022-11-09T22:11:41.561Z,28.58
2022-11-09T22:14:34.860Z,27.52
2022-11-09T22:17:02.172Z,28.23
2022-11-09T22:19:47.397Z,27.55
2022-11-09T22:22:14.878Z,29.73
2022-11-09T22:24:42.002Z,29.42
2022-11-09T22:27:08.944Z,27.90
2022-11-09T22:29:35.524Z,29.35
2022-11-09T22:32:02.238Z,30.08
2022-11-09T22:34:28.782Z,29.17
2022-11-09T22:36:55.363Z,29.85
2022-11-09T22:39:22.807Z,28.92
2022-11-09T22:41:49.477Z,29.35
2022-11-09T22:44:16.122Z,29.13
2022-11-09T22:46:42.692Z,29.10
2022-11-09T22:49:10.277Z,29.17
2022-11-09T22:51:36.845Z,30.85
2022-11-09T22:54:03.529Z,29.40
2022-11-09T22:56:30.090Z,27.45
2022-11-09T22:58:57.206Z,28.25
2022-11-09T23:01:23.870Z,29.88
2022-11-09T23:03:50.489Z,30.05
2022-11-09T23:06:20.759Z,30.90
2022-11-09T23:08:47.530Z,31.17
2022-11-09T23:11:17.570Z,29.85
2022-11-09T23:13:44.578Z,27.88
2022-11-09T23:16:12.014Z,29.30
2022-11-09T23:18:54.072Z,29.92
2022-11-09T23:21:20.730Z,29.60
2022-11-09T23:23:48.294Z,30.05
2022-11-09T23:26:15.191Z,30.13
2022-11-09T23:28:41.783Z,32.80
2022-11-09T23:31:11.588Z,28.92
2022-11-09T23:33:38.347Z,28.35
2022-11-09T23:36:06.050Z,28.35
2022-11-09T23:38:34.220Z,28.75
2022-11-09T23:41:02.592Z,28.60
2022-11-09T23:43:29.143Z,26.90
2022-11-09T23:45:57.116Z,27.90
2022-11-09T23:48:23.748Z,28.05
2022-11-09T23:50:50.330Z,26.95
2022-11-09T23:53:16.902Z,27.40
2022-11-09T23:55:43.634Z,28.95
2022-11-09T23:58:10.165Z,27.10
